createdAt,value
2023-08-12T00:02:33.470Z,66.93421142023539
2023-08-12T00:05:30.054Z,66.61886016689775
2023-08-12T00:08:25.566Z,66.54638150975441
2023-08-12T00:11:21.177Z,66.29469308733437
2023-08-12T00:14:16.673Z,65.92808414106037
2023-08-12T00:17:12.491Z,67.00107313810895
2023-08-12T00:20:09.790Z,67.33108301124301
2023-08-12T00:23:05.365Z,67.86750177165649
2023-08-12T00:26:00.952Z,66.75246239062146
2023-08-12T00:28:56.477Z,66.43204091529144
2023-08-12T00:31:52.051Z,66.90473440939472
2023-08-12T00:34:47.618Z,67.80183612699598
2023-08-12T00:37:44.200Z,68.31434549428067
2023-08-12T00:40:40.729Z,67.12914074542519
2023-08-12T00:43:36.291Z,66.85668470969658
2023-08-12T00:46:31.883Z,66.33491191667358
2023-08-12T00:49:28.417Z,66.60435921013902
2023-08-12T00:52:24.997Z,66.56581503825856
2023-08-12T00:55:21.540Z,66.90489595638356
2023-08-12T00:58:18.084Z,67.06442967013881
2023-08-12T01:01:15.721Z,68.21452825519721
2023-08-12T01:04:11.209Z,68.06094979741287
2023-08-12T01:07:07.755Z,68.15117413629243
2023-08-12T01:10:04.355Z,68.19501728987134
2023-08-12T01:13:07.865Z,68.89075639389507
2023-08-12T01:16:06.515Z,69.45071222177447
2023-08-12T01:19:03.005Z,70.23396682253608
2023-08-12T01:22:02.512Z,70.45213731612915
2023-08-12T01:24:58.147Z,71.73936065308192
2023-08-12T01:27:53.647Z,71.21308655026428
2023-08-12T01:30:56.255Z,70.01016808135691
2023-08-12T01:34:01.715Z,69.99644369857904
2023-08-12T01:37:00.353Z,69.05925565354734
2023-08-12T01:39:59.816Z,68.4997689148364
2023-08-12T01:42:56.404Z,69.25335022044133
2023-08-12T01:45:51.968Z,69.66614223433163
2023-08-12T01:48:47.525Z,69.70096904263724
2023-08-12T01:51:44.094Z,70.0397554571276
2023-08-12T01:54:39.638Z,70.1064966875952
2023-08-12T01:57:38.198Z,70.81498698545774
2023-08-12T02:00:34.740Z,70.61393885029624
2023-08-12T02:03:30.399Z,71.05286005530752
2023-08-12T02:06:25.873Z,70.72170307298296
2023-08-12T02:09:22.476Z,71.07171166853205
2023-08-12T02:12:17.989Z,70.43419338290086
2023-08-12T02:15:13.561Z,70.87071031347472
2023-08-12T02:18:09.143Z,71.0287821021406
2023-08-12T02:21:04.660Z,70.71021513723187
2023-08-12T02:24:01.279Z,71.36406581592041
2023-08-12T02:26:56.819Z,70.91288735485233
2023-08-12T02:29:52.361Z,70.99830836596547
2023-08-12T02:32:47.925Z,71.87136510736214
2023-08-12T02:35:43.476Z,71.35214458082062
2023-08-12T02:38:39.058Z,72.00561181184256
2023-08-12T02:41:34.657Z,72.97491914410564
2023-08-12T02:44:30.178Z,72.80110285257773
2023-08-12T02:47:25.807Z,72.77707227050202
2023-08-12T02:50:21.298Z,71.88724371835188
2023-08-12T02:53:18.933Z,72.14969068283713
2023-08-12T02:56:14.417Z,72.36953049521716
2023-08-12T02:59:09.997Z,72.66501234816982
2023-08-12T03:02:06.623Z,72.86168035654808
2023-08-12T03:05:02.133Z,73.20648361812364
2023-08-12T03:08:01.668Z,73.93302429055505
2023-08-12T03:11:01.220Z,73.78891148367985
2023-08-12T03:13:56.836Z,72.7705413231054
2023-08-12T03:16:52.323Z,72.0623240099698
2023-08-12T03:19:47.947Z,73.11672609152605
2023-08-12T03:22:43.462Z,73.61232738418944
2023-08-12T03:25:40.032Z,74.15189603443581
2023-08-12T03:28:36.595Z,74.45910647579397
2023-08-12T03:31:32.244Z,74.240339894778
2023-08-12T03:34:28.690Z,74.34087580536706
2023-08-12T03:37:24.261Z,74.45207814392664
2023-08-12T03:40:19.830Z,75.06640686210139
2023-08-12T03:43:15.397Z,73.29979245916262
2023-08-12T03:46:12.969Z,73.50117831237728
2023-08-12T03:49:08.487Z,74.37386575069405
2023-08-12T03:52:05.071Z,76.20654668726348
2023-08-12T03:55:00.632Z,76.86770340805032
2023-08-12T03:57:56.176Z,76.27615528665272
2023-08-12T04:00:51.783Z,75.84258283618043
2023-08-12T04:03:48.337Z,75.61069337208127
2023-08-12T04:06:48.852Z,75.38705478281614
2023-08-12T04:09:44.423Z,74.45658944669168
2023-08-12T04:12:40.932Z,73.13744688336686
2023-08-12T04:15:37.538Z,73.86546995116969
2023-08-12T04:18:33.123Z,73.61069803045733
2023-08-12T04:21:28.683Z,71.77773437101851
2023-08-12T04:24:24.229Z,73.28080547128236
2023-08-12T04:27:19.798Z,74.59499174047762
2023-08-12T04:30:16.578Z,76.12620519056271
2023-08-12T04:33:12.929Z,76.10846859302589
2023-08-12T04:36:08.507Z,74.79627080175747
2023-08-12T04:39:05.041Z,74.66370187268893
2023-08-12T04:42:00.579Z,75.17676744091855
2023-08-12T04:44:56.137Z,75.80860092472756
2023-08-12T04:47:51.698Z,76.70529204228617
2023-08-12T04:50:47.241Z,75.52153647624424
2023-08-12T04:53:47.804Z,75.86136165257773
2023-08-12T04:56:43.367Z,75.09581163666294
2023-08-12T04:59:41.936Z,74.77794649285416
2023-08-12T05:02:37.535Z,74.80799460618951
2023-08-12T05:05:34.042Z,74.42011388134291
2023-08-12T05:08:29.635Z,73.75967832807598
2023-08-12T05:11:26.169Z,73.68985044497686
2023-08-12T05:14:21.743Z,75.09997385537275
2023-08-12T05:17:17.257Z,74.19011060833998
2023-08-12T05:20:12.896Z,72.33252596327144
2023-08-12T05:23:08.432Z,72.10695000371582
2023-08-12T05:26:03.958Z,71.02292810377389
2023-08-12T05:28:59.552Z,70.01724057254464
2023-08-12T05:31:55.168Z,68.30477293623467
2023-08-12T05:34:51.707Z,67.52123175393436
2023-08-12T05:37:47.251Z,67.51896326978138
2023-08-12T05:40:43.792Z,67.62818680265693
2023-08-12T05:43:40.357Z,67.41876904193231
2023-08-12T05:46:35.957Z,68.12092089974595
2023-08-12T05:49:32.520Z,67.75937651423061
2023-08-12T05:52:28.079Z,67.17484511028182
2023-08-12T05:55:23.551Z,66.26885083432482
2023-08-12T05:58:19.150Z,65.42769952870633
2023-08-12T06:01:17.701Z,65.04338219345898
2023-08-12T06:04:13.292Z,65.4348441448209
2023-08-12T06:07:09.816Z,65.13052536924582
2023-08-12T06:10:06.381Z,63.870960778003095
2023-08-12T06:13:01.956Z,63.644413508912194
2023-08-12T06:15:57.512Z,62.8379673624053
2023-08-12T06:18:53.042Z,62.428514585923196
2023-08-12T06:21:48.617Z,60.8444688041825
2023-08-12T06:24:45.220Z,60.935703271296596
2023-08-12T06:27:40.761Z,58.3742366265023
2023-08-12T06:30:38.325Z,57.499581796588814
2023-08-12T06:33:33.886Z,56.27584983760922
2023-08-12T06:36:29.418Z,55.241522327974096
2023-08-12T06:39:25.996Z,53.37055979143608
2023-08-12T06:42:23.541Z,53.85723899848512
2023-08-12T06:45:19.086Z,53.33635373317499
2023-08-12T06:48:14.777Z,51.95216421709444
2023-08-12T06:51:11.247Z,51.26627383172964
2023-08-12T06:54:06.798Z,51.12216883216399
2023-08-12T06:57:02.333Z,51.56798486588684
2023-08-12T06:59:58.910Z,50.82101039844703
2023-08-12T07:02:55.525Z,50.59698479573131
2023-08-12T07:05:51.021Z,49.75233927123848
2023-08-12T07:08:46.636Z,50.16617751853711
2023-08-12T07:11:42.173Z,49.00538787716951
2023-08-12T07:14:37.768Z,49.267431750485684
2023-08-12T07:17:34.307Z,48.59254824577107
2023-08-12T07:20:29.841Z,47.991790627421885
2023-08-12T07:23:25.416Z,47.745691496411666
2023-08-12T07:26:20.991Z,47.70058862956448
2023-08-12T07:29:16.546Z,47.680498668476474
2023-08-12T07:32:13.473Z,46.15525317239634
2023-08-12T07:35:10.678Z,44.37657989050119
2023-08-12T07:38:06.197Z,44.389441691100345
2023-08-12T07:41:02.759Z,44.76159817814256
2023-08-12T07:43:58.320Z,44.84753012765307
2023-08-12T07:46:54.911Z,44.55266223227739
2023-08-12T07:49:50.458Z,43.90304675157373
2023-08-12T07:52:46.014Z,42.996487535298485
2023-08-12T07:55:41.586Z,40.84148008026898
2023-08-12T07:58:37.802Z,41.06428114947894
2023-08-12T08:01:34.264Z,40.77293383036756
2023-08-12T08:04:31.344Z,39.4518433200818
2023-08-12T08:07:26.842Z,41.20240585096701
2023-08-12T08:10:24.382Z,40.624657552452405
2023-08-12T08:13:20.954Z,40.56737299040126
2023-08-12T08:16:16.660Z,40.802091448089875
2023-08-12T08:19:13.466Z,39.55956539690929
2023-08-12T08:22:10.998Z,40.43572273247683
2023-08-12T08:25:08.179Z,40.06345989862968
2023-08-12T08:28:04.761Z,40.1148789377868
2023-08-12T08:31:00.297Z,38.31613130419159
2023-08-12T08:33:55.851Z,38.197755243531624
2023-08-12T08:36:52.710Z,39.92622686171607
2023-08-12T08:39:47.964Z,39.41000681468731
2023-08-12T08:42:46.522Z,37.687556303027804
2023-08-12T08:45:46.043Z,37.73272611208015
2023-08-12T08:48:42.634Z,36.9122424807915
2023-08-12T08:51:39.188Z,38.317696814416536
2023-08-12T08:54:36.774Z,36.963876740826706
2023-08-12T08:57:41.919Z,36.60099183586579
2023-08-12T09:00:33.868Z,36.972393212382734
2023-08-12T09:03:30.401Z,36.953681786862816
2023-08-12T09:06:29.966Z,35.23574917353897
2023-08-12T09:09:26.521Z,34.794201384591325
2023-08-12T09:12:25.045Z,34.83715727152088
2023-08-12T09:15:21.618Z,34.846763340834016
2023-08-12T09:18:19.190Z,34.808867836509975
2023-08-12T09:21:16.773Z,33.86099100656366
2023-08-12T09:24:14.304Z,33.77135442653965
2023-08-12T09:27:10.883Z,33.04745309921416
2023-08-12T09:30:08.464Z,32.48974829328393
2023-08-12T09:33:08.004Z,33.798555094435244
2023-08-12T09:36:06.585Z,33.186628674713816
2023-08-12T09:39:07.093Z,31.3257157682525
2023-08-12T09:42:03.635Z,32.70739560135336
2023-08-12T09:44:59.195Z,31.96880880413717
2023-08-12T09:47:58.891Z,30.56270773470536
2023-08-12T09:50:55.336Z,29.926797264794885
2023-08-12T09:53:54.877Z,33.35592375422242
2023-08-12T09:56:55.459Z,31.503117191751052
2023-08-12T09:59:55.022Z,32.36173183303367
2023-08-12T10:02:53.627Z,30.537132290309696
2023-08-12T10:05:53.076Z,30.430548256773697
2023-08-12T10:08:51.641Z,29.962967045357342
2023-08-12T10:11:48.211Z,31.92527087102716
2023-08-12T10:14:45.741Z,32.73108150460014
2023-08-12T10:17:44.163Z,30.059557127697406
2023-08-12T10:20:44.942Z,31.17880945973203
2023-08-12T10:23:47.682Z,30.54337738626384
2023-08-12T10:26:46.008Z,30.220030833580648
2023-08-12T10:29:43.481Z,31.943913560137503
2023-08-12T10:32:42.092Z,30.324523119510133
2023-08-12T10:35:43.612Z,30.609905700339496
2023-08-12T10:38:39.201Z,27.20914610971539
2023-08-12T10:41:45.676Z,26.64359119838171
2023-08-12T10:44:46.214Z,26.810260926038445
2023-08-12T10:47:44.893Z,28.261388082382084
2023-08-12T10:50:46.387Z,27.354370811813716
2023-08-12T10:53:49.950Z,27.80191780371847
2023-08-12T10:56:57.452Z,27.946516958104667
2023-08-12T10:59:59.565Z,27.814250351871834
2023-08-12T11:03:00.542Z,26.9806615860097
2023-08-12T11:05:57.097Z,28.0527354616847
2023-08-12T11:08:57.652Z,30.751842159134778
2023-08-12T11:11:58.184Z,30.521924560173627
2023-08-12T11:14:58.764Z,30.774272374479228
2023-08-12T11:17:59.327Z,30.186499022540247
2023-08-12T11:20:55.861Z,29.954366144051168
2023-08-12T11:23:55.371Z,31.10837070569004
2023-08-12T11:26:51.954Z,30.885836313435366
2023-08-12T11:29:50.513Z,29.64347191576211
2023-08-12T11:32:47.119Z,30.07658964775463
2023-08-12T11:35:44.624Z,29.6676999493376
2023-08-12T11:38:40.161Z,29.530345037853458
2023-08-12T11:41:36.757Z,28.470546956496936
2023-08-12T11:44:32.323Z,27.16636039272541
2023-08-12T11:47:27.868Z,26.036718019522937
2023-08-12T11:50:25.431Z,24.350888294513744
2023-08-12T11:53:22.991Z,24.540871052567933
2023-08-12T11:56:21.548Z,23.916253122520605
2023-08-12T11:59:22.057Z,25.845011460259204
2023-08-12T12:02:21.611Z,27.166523630652033
2023-08-12T12:05:18.580Z,27.73595978640922
2023-08-12T12:08:16.719Z,24.37747940519633
2023-08-12T12:11:12.341Z,25.435394066722793
2023-08-12T12:14:08.829Z,23.861701350313606
2023-08-12T12:17:13.500Z,23.467446431274862
2023-08-12T12:20:12.020Z,23.179933677935267
2023-08-12T12:23:07.556Z,23.489155018257055
2023-08-12T12:26:04.077Z,22.351497254320982
2023-08-12T12:28:59.666Z,23.359068986987253
2023-08-12T12:31:56.194Z,21.717739090328212
2023-08-12T12:34:54.763Z,21.71204076363429
2023-08-12T12:37:50.922Z,21.61121815563223
2023-08-12T12:40:46.893Z,22.563202402360037
2023-08-12T12:43:43.425Z,21.719959290201697
2023-08-12T12:46:40.013Z,21.426397526270375
2023-08-12T12:49:36.542Z,20.42681860651783
2023-08-12T12:52:32.125Z,17.593651765033645
2023-08-12T12:55:28.765Z,18.97260704426275
2023-08-12T12:58:26.243Z,19.17715822801312
2023-08-12T13:01:21.816Z,19.842521299204492
2023-08-12T13:04:17.355Z,20.824891082230547
2023-08-12T13:07:12.934Z,18.866037012750205
2023-08-12T13:10:09.512Z,18.316336196666946
2023-08-12T13:13:06.051Z,19.09914516384212
2023-08-12T13:16:01.695Z,17.850439007823468
2023-08-12T13:18:59.168Z,18.202664163450546
2023-08-12T13:21:55.712Z,17.44107234165407
2023-08-12T13:24:53.281Z,18.61754955287917
2023-08-12T13:27:49.858Z,19.43891491879897
2023-08-12T13:30:45.426Z,19.16409876615414
2023-08-12T13:33:41.003Z,17.94605748299779
2023-08-12T13:36:37.567Z,17.630159532593538
2023-08-12T13:39:33.113Z,18.76770940699237
2023-08-12T13:42:29.616Z,17.333985341875415
2023-08-12T13:45:25.282Z,17.194351356019396
2023-08-12T13:48:20.895Z,17.19464817224897
2023-08-12T13:51:16.340Z,16.16032207420462
2023-08-12T13:54:11.875Z,18.28538336046401
2023-08-12T13:57:07.472Z,15.617750162216296
2023-08-12T14:00:07.019Z,15.827946334492905
2023-08-12T14:03:02.571Z,15.030432819778882
2023-08-12T14:06:01.258Z,17.531053860567603
2023-08-12T14:08:56.698Z,16.065866878772137
2023-08-12T14:11:53.237Z,14.869224290156023
2023-08-12T14:14:49.786Z,14.43342203085202
2023-08-12T14:17:47.392Z,14.5081559500489
2023-08-12T14:20:43.929Z,14.472684734471178
2023-08-12T14:23:41.449Z,13.685708474441133
2023-08-12T14:26:37.039Z,13.817324033908667
2023-08-12T14:29:32.593Z,13.861312957115828
2023-08-12T14:32:28.164Z,13.425491162224722
2023-08-12T14:35:24.731Z,13.847802171553006
2023-08-12T14:38:22.281Z,13.290370422674918
2023-08-12T14:41:19.880Z,13.382152511510334
2023-08-12T14:44:16.406Z,15.632989414767028
2023-08-12T14:47:12.340Z,16.4365296465116
2023-08-12T14:50:09.562Z,16.383839473000386
2023-08-12T14:53:05.065Z,13.63356907603465
2023-08-12T14:56:01.643Z,14.353816432117865
2023-08-12T14:58:57.192Z,13.38932039015134
2023-08-12T15:01:53.846Z,13.702393951444941
2023-08-12T15:04:49.301Z,12.515486077056421
2023-08-12T15:07:46.961Z,12.18138256809285
2023-08-12T15:10:42.464Z,13.231773688377352
2023-08-12T15:13:38.992Z,12.439468228632894
2023-08-12T15:16:34.548Z,12.004053931272624
2023-08-12T15:19:30.123Z,12.193051689450403
2023-08-12T15:22:27.703Z,13.557557328690873
2023-08-12T15:25:26.247Z,16.846408626936256
2023-08-12T15:28:22.781Z,13.334036495476347
2023-08-12T15:31:20.931Z,12.072948546288304
2023-08-12T15:34:15.882Z,12.829803068399745
2023-08-12T15:37:13.675Z,12.565264228963796
2023-08-12T15:40:10.060Z,12.728029917986472
2023-08-12T15:43:06.582Z,12.424446572109243
2023-08-12T15:46:02.182Z,12.47046526766977
2023-08-12T15:48:57.718Z,12.774580279838078
2023-08-12T15:51:53.224Z,13.641536275487764
2023-08-12T15:54:49.869Z,13.273797949882079
2023-08-12T15:57:45.378Z,12.843994138740667
2023-08-12T16:00:44.001Z,13.405655352852945
2023-08-12T16:03:41.602Z,12.566836314107752
2023-08-12T16:06:38.096Z,12.018576763356847
2023-08-12T16:09:34.732Z,12.599418240340407
2023-08-12T16:12:30.236Z,11.903209353241
2023-08-12T16:15:25.761Z,12.105125871735318
2023-08-12T16:18:21.328Z,11.973921797372352
2023-08-12T16:21:16.941Z,13.564300315776753
2023-08-12T16:24:12.460Z,13.164465243112511
2023-08-12T16:27:08.000Z,12.907964842751527
2023-08-12T16:30:04.550Z,13.290947933898632
2023-08-12T16:33:01.158Z,13.61409302614265
2023-08-12T16:35:56.662Z,13.324154164251654
2023-08-12T16:38:53.250Z,13.35233691149539
2023-08-12T16:41:49.782Z,13.364755952460113
2023-08-12T16:44:47.108Z,13.210764936673513
2023-08-12T16:47:42.926Z,13.947205551368302
2023-08-12T16:50:39.480Z,15.172108757754131
2023-08-12T16:53:35.030Z,17.252883477560605
2023-08-12T16:56:30.680Z,18.67141050493761
2023-08-12T16:59:27.147Z,20.676974885752383
2023-08-12T17:02:22.922Z,22.186116342786946
2023-08-12T17:05:19.280Z,22.218193377619073
2023-08-12T17:08:14.877Z,22.591100906837184
2023-08-12T17:11:11.393Z,23.18729491825815
2023-08-12T17:14:09.972Z,24.347768955632716
2023-08-12T17:17:06.498Z,24.72617417489195
2023-08-12T17:20:04.042Z,25.07698571963214
2023-08-12T17:22:59.661Z,25.64066098480646
2023-08-12T17:25:55.165Z,27.146459491540373
2023-08-12T17:28:51.755Z,26.433246596853508
2023-08-12T17:31:50.307Z,28.4521093304608
2023-08-12T17:34:45.871Z,28.353582627512385
2023-08-12T17:37:41.480Z,29.022403652444282
2023-08-12T17:40:38.579Z,29.06374534354255
2023-08-12T17:43:34.563Z,30.234023026271288
2023-08-12T17:46:30.158Z,31.355392450041226
2023-08-12T17:49:25.653Z,31.950353729023007
2023-08-12T17:52:21.212Z,32.75686871458495
2023-08-12T17:55:16.803Z,32.10710019562127
2023-08-12T17:58:12.377Z,33.022807501023344
2023-08-12T18:01:07.947Z,33.01514739617433
2023-08-12T18:04:04.490Z,33.32863781686135
2023-08-12T18:07:00.042Z,33.619474214650616
2023-08-12T18:09:55.588Z,33.76039510408576
2023-08-12T18:12:51.146Z,34.440804684268016
2023-08-12T18:15:46.830Z,34.281350444928975
2023-08-12T18:18:43.133Z,34.47851413481927
2023-08-12T18:21:40.854Z,34.9384378084808
2023-08-12T18:24:37.402Z,35.50969657692394
2023-08-12T18:27:32.961Z,35.969875219593206
2023-08-12T18:30:30.693Z,36.481636293790906
2023-08-12T18:33:26.133Z,36.52821778898634
2023-08-12T18:36:21.648Z,37.06756089032507
2023-08-12T18:39:18.255Z,37.78316839777161
2023-08-12T18:42:14.043Z,39.11571670128104
2023-08-12T18:45:10.529Z,39.45878730748858
2023-08-12T18:48:13.948Z,40.56051190621121
2023-08-12T18:51:09.423Z,41.35298369620879
2023-08-12T18:54:06.993Z,41.688917373327
2023-08-12T18:57:03.565Z,41.31829130526641
2023-08-12T19:00:01.099Z,41.774054886778345
2023-08-12T19:03:06.694Z,42.73093188119084
2023-08-12T19:06:03.212Z,42.94654129696278
2023-08-12T19:08:59.749Z,43.707442573634225
2023-08-12T19:11:56.292Z,44.406880653313486
2023-08-12T19:14:53.866Z,44.97529446938386
2023-08-12T19:17:49.527Z,45.33324710680382
2023-08-12T19:20:46.042Z,45.85145107503206
2023-08-12T19:23:41.573Z,46.32647949556603
2023-08-12T19:26:38.095Z,46.66270582964553
2023-08-12T19:29:34.650Z,47.950445058441474
2023-08-12T19:32:30.259Z,48.145498404361746
2023-08-12T19:35:27.815Z,49.775239652972665
2023-08-12T19:38:26.364Z,50.71609627866595
2023-08-12T19:41:21.912Z,51.47635615572611
2023-08-12T19:44:17.474Z,50.96070743041726
2023-08-12T19:47:13.053Z,51.3931251503936
2023-08-12T19:50:10.600Z,51.65293551350841
2023-08-12T19:53:07.145Z,51.95872131995638
2023-08-12T19:56:03.712Z,53.077539068941164
2023-08-12T19:58:59.268Z,53.160044805208784
2023-08-12T20:01:57.847Z,53.458648081327475
2023-08-12T20:04:53.386Z,54.3989996611433
2023-08-12T20:07:49.949Z,54.38550584245281
2023-08-12T20:10:47.470Z,54.46487501362235
2023-08-12T20:13:45.124Z,54.51788982559695
2023-08-12T20:16:40.665Z,53.57918070357049
2023-08-12T20:19:36.180Z,53.94521684466284
2023-08-12T20:22:32.764Z,54.87320516001805
2023-08-12T20:25:29.307Z,55.89911198831611
2023-08-12T20:28:27.867Z,57.35836300797168
2023-08-12T20:31:24.499Z,57.11420326625818
2023-08-12T20:34:19.969Z,56.655220042381806
2023-08-12T20:37:16.696Z,57.49530579854511
2023-08-12T20:40:14.122Z,57.4217698037709
2023-08-12T20:43:10.650Z,57.61445337388928
2023-08-12T20:46:06.281Z,58.062910138079395
2023-08-12T20:49:04.783Z,57.60830524381985
2023-08-12T20:52:00.344Z,57.69395130833187
2023-08-12T20:54:55.924Z,58.890919200876425
2023-08-12T20:57:51.465Z,59.86304328841881
2023-08-12T21:00:47.022Z,60.926015132275595
2023-08-12T21:03:42.650Z,60.40978765209867
2023-08-12T21:06:41.134Z,61.04645174556993
2023-08-12T21:09:38.337Z,60.63445936885084
2023-08-12T21:12:36.251Z,60.64935359576861
2023-08-12T21:15:31.827Z,60.51823720358667
2023-08-12T21:18:28.417Z,60.79678735330839
2023-08-12T21:21:24.927Z,60.37004153260145
2023-08-12T21:24:21.500Z,60.83362128966316
2023-08-12T21:27:18.660Z,60.91659084034725
2023-08-12T21:30:13.681Z,60.74682666264736
2023-08-12T21:33:13.155Z,60.286850891278334
2023-08-12T21:36:09.776Z,60.704583657913126
2023-08-12T21:39:06.356Z,60.965636880048095
2023-08-12T21:42:02.833Z,61.270291638516376
2023-08-12T21:44:58.422Z,61.68663106353283
2023-08-12T21:47:55.029Z,62.450152924060035
2023-08-12T21:50:51.522Z,62.61048070740998
2023-08-12T21:53:47.119Z,61.765609513816955
2023-08-12T21:56:42.633Z,60.74930653319753
2023-08-12T21:59:39.222Z,60.61098334824221
2023-08-12T22:02:34.802Z,61.74930099172309
2023-08-12T22:05:31.360Z,62.04182592469396
2023-08-12T22:08:28.877Z,63.039556388891526
2023-08-12T22:11:27.460Z,63.66361544015684
2023-08-12T22:14:22.992Z,63.80112001043735
2023-08-12T22:17:18.599Z,63.69064132576266
2023-08-12T22:20:14.099Z,64.07802337171768
2023-08-12T22:23:09.682Z,63.573143649121135
2023-08-12T22:26:05.234Z,63.205277761505336
2023-08-12T22:29:00.840Z,63.080392815058545
2023-08-12T22:31:57.378Z,63.33902171268877
2023-08-12T22:34:53.941Z,64.46585073335655
2023-08-12T22:37:49.546Z,64.54474934537886
2023-08-12T22:40:45.041Z,64.7094605207842
2023-08-12T22:43:40.581Z,65.57131735627
2023-08-12T22:46:36.246Z,65.4332863682741
2023-08-12T22:49:31.808Z,65.86208380987833
2023-08-12T22:52:27.297Z,66.41558396034574
2023-08-12T22:55:22.888Z,66.73453993803587
2023-08-12T22:58:18.401Z,66.95055394312604
2023-08-12T23:01:14.057Z,67.12370895759639
2023-08-12T23:04:10.598Z,67.30593555984422
2023-08-12T23:07:07.126Z,66.84806314423119
2023-08-12T23:10:03.652Z,68.55275986259727
2023-08-12T23:12:59.221Z,68.23420509240492
2023-08-12T23:15:54.790Z,67.77455219771886
2023-08-12T23:18:50.330Z,67.94564015912265
2023-08-12T23:21:45.908Z,67.83774570832
2023-08-12T23:24:42.467Z,67.78030072821235
2023-08-12T23:27:38.023Z,67.81165179514586
2023-08-12T23:30:34.621Z,67.42306345905527
2023-08-12T23:33:30.170Z,66.98643064510647
2023-08-12T23:36:25.717Z,67.31879362984759
2023-08-12T23:39:22.304Z,67.10544405880813
2023-08-12T23:42:17.836Z,66.99467299453764
2023-08-12T23:45:13.392Z,68.04761699873025
2023-08-12T23:48:11.973Z,68.46155868493643
2023-08-12T23:51:12.507Z,67.97821845240425
2023-08-12T23:54:09.061Z,67.28566670852655
2023-08-12T23:57:05.619Z,67.19566488219893
